Time;durP1;ratioP1;P1;durP2;ratioP2;P2;SDS_P1;SDS_P2;PMS_P1;PMS_P2;Temp;Humidity;BMP_temperature;BMP_pressure;BME280_temperature;BME280_humidity;BME280_pressure;Samples;Min_cycle;Max_cycle;Signal;HPM_P1;HPM_P2
2022/03/13 00:00:15;;;;;;;12.45;4.68;;;;;;;15.22;41.00;98570.78;4917896;29;20399;-49
2022/03/13 00:02:41;;;;;;;11.25;5.18;;;;;;;15.22;40.72;98570.78;4917920;29;20024;-49
2022/03/13 00:05:16;;;;;;;16.27;6.95;;;;;;;15.21;41.02;98569.16;4917759;29;20505;-49
2022/03/13 00:07:47;;;;;;;;;;;;;;;15.26;40.75;98569.28;4918271;29;20059;-50
2022/03/13 00:10:18;;;;;;;9.43;4.50;;;;;;;15.17;44.19;98565.38;4917793;29;20404;-49
2022/03/13 00:12:47;;;;;;;10.02;4.07;;;;;;;15.04;43.75;98561.16;4916527;29;20167;-49
2022/03/13 00:15:14;;;;;;;5.65;3.88;;;;;;;14.81;44.17;98571.72;4917407;29;20115;-50
2022/03/13 00:17:40;;;;;;;9.60;4.65;;;;;;;14.66;44.13;98572.19;4917510;29;20059;-50
2022/03/13 00:20:08;;;;;;;10.13;5.18;;;;;;;14.55;43.22;98571.16;4917513;29;20080;-49
2022/03/13 00:22:36;;;;;;;7.35;4.38;;;;;;;14.51;42.39;98575.28;4917474;29;20036;-50
2022/03/13 00:25:08;;;;;;;6.97;4.03;;;;;;;14.41;42.90;98586.41;4917428;29;20032;-50
2022/03/13 00:27:34;;;;;;;8.02;5.63;;;;;;;14.39;42.26;98588.47;4917472;29;20032;-50
2022/03/13 00:30:05;;;;;;;59.63;43.15;;;;;;;14.27;42.49;98585.00;4917332;29;20028;-50
2022/03/13 00:32:31;;;;;;;16.88;13.73;;;;;;;14.14;42.93;98585.97;4917349;29;20083;-50
2022/03/13 00:34:57;;;;;;;10.00;4.78;;;;;;;14.04;42.64;98581.25;4915979;29;20032;-49
2022/03/13 00:37:23;;;;;;;27.50;9.15;;;;;;;14.02;43.20;98591.22;4917147;29;20024;-49
2022/03/13 00:39:50;;;;;;;21.08;13.07;;;;;;;14.04;43.07;98588.38;4917158;29;20083;-50
2022/03/13 00:42:17;;;;;;;11.45;6.05;;;;;;;14.04;43.18;98593.63;4917103;29;20097;-50
2022/03/13 00:44:43;;;;;;;5.55;3.40;;;;;;;14.09;42.73;98591.16;4917112;29;20035;-49
2022/03/13 00:47:09;;;;;;;9.77;7.18;;;;;;;13.99;43.10;98592.47;4917057;29;20467;-50
2022/03/13 00:49:34;;;;;;;17.05;5.72;;;;;;;14.02;43.35;98590.41;4917024;29;20051;-49
2022/03/13 00:52:03;;;;;;;5.20;4.13;;;;;;;14.01;43.19;98594.91;4916903;29;20096;-49
2022/03/13 00:54:29;;;;;;;6.40;4.05;;;;;;;13.95;43.07;98591.31;4916940;29;20119;-50
2022/03/13 00:56:55;;;;;;;7.68;3.83;;;;;;;13.87;43.31;98591.63;4916075;29;20108;-50
2022/03/13 00:59:21;;;;;;;6.90;4.47;;;;;;;13.78;43.65;98585.88;4916889;29;20028;-50
2022/03/13 01:01:48;;;;;;;8.65;5.10;;;;;;;13.77;43.59;98594.00;4915532;29;20051;-50
2022/03/13 01:04:14;;;;;;;8.52;4.57;;;;;;;13.82;44.10;98590.69;4916807;29;20028;-49
2022/03/13 01:06:41;;;;;;;6.50;3.15;;;;;;;13.79;43.45;98586.69;4915381;29;20569;-49
2022/03/13 01:09:07;;;;;;;8.65;3.92;;;;;;;13.65;44.03;98586.03;4916711;29;20048;-49
2022/03/13 01:11:32;;;;;;;11.77;4.50;;;;;;;13.59;44.49;98585.09;4916628;29;20540;-49
2022/03/13 01:13:58;;;;;;;8.30;4.15;;;;;;;13.65;44.61;98577.34;4916586;29;20056;-50
2022/03/13 01:16:33;;;;;;;10.13;3.88;;;;;;;13.77;44.13;98589.53;4916227;29;20059;-49
2022/03/13 01:19:00;;;;;;;4.90;3.65;;;;;;;13.92;43.33;98580.41;4916576;29;20056;-49
2022/03/13 01:21:31;;;;;;;9.18;4.70;;;;;;;13.82;44.05;98574.88;4915141;29;20064;-50
2022/03/13 01:24:00;;;;;;;12.20;5.75;;;;;;;13.83;44.24;98576.50;4915144;29;20498;-50
2022/03/13 01:26:26;;;;;;;6.13;3.70;;;;;;;13.86;43.72;98576.81;4915061;29;20383;-49
2022/03/13 01:28:57;;;;;;;7.80;3.65;;;;;;;13.76;43.88;98576.56;4916309;29;20086;-50
2022/03/13 01:31:35;;;;;;;5.57;3.60;;;;;;;13.54;44.20;98563.88;4916348;29;20050;-49
2022/03/13 01:34:01;;;;;;;8.05;3.47;;;;;;;13.57;44.30;98568.69;4916289;29;20088;-48
2022/03/13 01:36:28;;;;;;;11.23;7.45;;;;;;;13.50;44.18;98559.25;4916155;29;20028;-50
2022/03/13 01:38:56;;;;;;;4.47;4.05;;;;;;;13.47;44.44;98559.72;4914906;29;20036;-50
2022/03/13 01:41:28;;;;;;;8.40;3.75;;;;;;;13.51;44.39;98550.31;4916145;29;20036;-50
2022/03/13 01:43:56;;;;;;;9.02;5.28;;;;;;;13.59;44.72;98552.66;4916125;29;20079;-49
2022/03/13 01:46:21;;;;;;;5.03;3.50;;;;;;;13.61;44.11;98553.22;4916147;29;20028;-49
2022/03/13 01:48:55;;;;;;;6.32;3.63;;;;;;;13.61;44.27;98542.69;4916069;29;20031;-49
2022/03/13 01:51:22;;;;;;;14.38;4.20;;;;;;;13.56;44.65;98551.28;4914710;29;20043;-49
2022/03/13 01:53:52;;;;;;;5.35;3.70;;;;;;;13.53;44.12;98541.16;4915942;29;20028;-49
2022/03/13 01:56:18;;;;;;;4.60;4.07;;;;;;;13.51;44.52;98545.84;4914884;29;20115;-49
2022/03/13 01:58:48;;;;;;;4.63;3.25;;;;;;;13.48;45.02;98541.03;4915898;29;20027;-49
2022/03/13 02:01:13;;;;;;;7.53;3.38;;;;;;;13.57;44.75;98541.53;4914600;29;20028;-49
2022/03/13 02:03:39;;;;;;;5.07;3.33;;;;;;;13.69;44.67;98536.31;4915820;29;20546;-49
2022/03/13 02:06:05;;;;;;;5.45;3.17;;;;;;;13.59;44.41;98534.19;4915807;29;20020;-50
2022/03/13 02:08:34;;;;;;;14.20;5.22;;;;;;;13.50;44.70;98539.00;4914347;29;20055;-49
2022/03/13 02:11:00;;;;;;;6.90;4.13;;;;;;;13.45;44.83;98543.31;4915705;29;20467;-49
2022/03/13 02:13:27;;;;;;;8.13;6.28;;;;;;;13.24;45.44;98536.63;4915740;29;20087;-50
2022/03/13 02:15:55;;;;;;;14.10;4.63;;;;;;;13.23;45.37;98535.81;4915430;29;20081;-49
2022/03/13 02:18:21;;;;;;;10.40;6.22;;;;;;;13.28;45.58;98538.63;4915551;29;20107;-49
2022/03/13 02:20:47;;;;;;;8.52;4.68;;;;;;;13.17;45.56;98536.72;4915563;29;20499;-50
2022/03/13 02:23:18;;;;;;;5.93;4.95;;;;;;;13.10;46.76;98531.53;4915619;29;20023;-49
2022/03/13 02:25:43;;;;;;;8.48;4.28;;;;;;;13.32;46.01;98529.28;4914291;29;20028;-49
2022/03/13 02:28:10;;;;;;;8.15;3.83;;;;;;;13.24;45.78;98526.91;4915607;29;20503;-49
2022/03/13 02:30:35;;;;;;;11.15;6.70;;;;;;;13.07;46.63;98526.69;4915506;29;20107;-49
2022/03/13 02:33:01;;;;;;;12.32;4.85;;;;;;;12.98;46.43;98525.38;4915527;29;20534;-50
2022/03/13 02:35:29;;;;;;;11.73;5.78;;;;;;;12.95;46.45;98528.44;4915520;29;20035;-49
2022/03/13 02:37:55;;;;;;;9.20;4.68;;;;;;;12.89;46.68;98521.41;4915395;29;20043;-50
2022/03/13 02:40:24;;;;;;;8.77;4.47;;;;;;;13.02;46.92;98517.81;4914154;29;20032;-49
2022/03/13 02:42:51;;;;;;;8.77;4.05;;;;;;;13.21;46.47;98510.72;4914133;29;20017;-49
2022/03/13 02:45:32;;;;;;;13.73;4.60;;;;;;;13.34;45.92;98500.88;4915432;29;20028;-49
2022/03/13 02:47:59;;;;;;;10.60;4.95;;;;;;;13.55;45.72;98491.66;4915438;29;20035;-50
2022/03/13 02:50:25;;;;;;;11.73;4.00;;;;;;;13.75;45.08;98496.63;4914075;29;20130;-49
2022/03/13 02:52:51;;;;;;;16.02;5.53;;;;;;;13.86;45.04;98499.53;4915376;29;20124;-49
2022/03/13 02:55:17;;;;;;;11.30;5.55;;;;;;;13.88;44.70;98498.25;4914010;29;20032;-49
2022/03/13 02:57:43;;;;;;;8.57;5.78;;;;;;;13.96;44.97;98497.13;4915273;29;20494;-49
2022/03/13 03:00:09;;;;;;;8.10;3.95;;;;;;;14.13;44.07;98492.03;4914049;29;20067;-49
2022/03/13 03:02:36;;;;;;;19.73;17.33;;;;;;;14.16;44.38;98489.69;4915291;29;20060;-49
2022/03/13 03:05:06;;;;;;;16.50;6.30;;;;;;;14.27;44.47;98488.13;4915232;29;20035;-49
2022/03/13 03:07:32;;;;;;;9.70;4.30;;;;;;;14.46;43.67;98480.88;4915270;29;20131;-50
2022/03/13 03:09:58;;;;;;;10.82;5.57;;;;;;;14.49;43.44;98480.44;4913944;29;20503;-49
2022/03/13 03:12:24;;;;;;;14.43;7.82;;;;;;;14.37;43.62;98482.28;4915185;29;20023;-49
2022/03/13 03:14:50;;;;;;;6.85;4.53;;;;;;;14.33;43.87;98476.66;4913679;29;20040;-49
2022/03/13 03:17:16;;;;;;;9.63;4.75;;;;;;;14.20;44.16;98482.13;4913816;29;20068;-49
2022/03/13 03:19:42;;;;;;;17.08;7.55;;;;;;;14.21;44.45;98485.59;4915183;29;20386;-49
2022/03/13 03:22:08;;;;;;;12.70;5.97;;;;;;;14.22;44.10;98482.72;4918821;29;20063;-49
2022/03/13 03:24:34;;;;;;;23.95;9.32;;;;;;;14.16;44.36;98481.00;4918573;29;20021;-49
2022/03/13 03:27:00;;;;;;;1638.15;897.67;;;;;;;14.29;44.92;98482.63;4917141;29;20055;-49
2022/03/13 03:29:27;;;;;;;277.35;205.73;;;;;;;14.46;44.04;98469.53;4918398;29;20034;-50
2022/03/13 03:31:54;;;;;;;103.10;66.93;;;;;;;14.46;43.59;98462.41;4917088;29;20406;-49
2022/03/13 03:34:22;;;;;;;63.90;48.65;;;;;;;14.49;43.67;98455.88;4917111;29;20070;-50
2022/03/13 03:36:58;;;;;;;54.42;37.33;;;;;;;14.46;43.41;98461.59;4918302;29;20091;-50
2022/03/13 03:39:25;;;;;;;38.10;21.73;;;;;;;14.53;43.29;98463.09;4918324;29;20028;-49
2022/03/13 03:41:53;;;;;;;42.80;27.65;;;;;;;14.56;43.48;98469.78;4918235;29;20028;-49
2022/03/13 03:44:20;;;;;;;23.55;15.02;;;;;;;14.57;43.16;98463.47;4918279;29;20103;-49
2022/03/13 03:46:48;;;;;;;15.10;9.73;;;;;;;14.54;43.04;98467.31;4918179;29;20447;-50
2022/03/13 03:49:14;;;;;;;16.75;10.85;;;;;;;14.56;43.31;98465.28;4918146;29;20502;-49
2022/03/13 03:51:41;;;;;;;11.30;6.20;;;;;;;14.49;42.92;98469.88;4916775;29;20059;-49
2022/03/13 03:54:07;;;;;;;23.35;14.30;;;;;;;14.24;43.13;98462.16;4918026;29;20024;-49
2022/03/13 03:56:34;;;;;;;13.95;7.55;;;;;;;14.09;43.68;98465.28;4918173;29;20024;-49
2022/03/13 03:59:00;;;;;;;14.85;6.55;;;;;;;13.90;43.66;98461.91;4917925;29;20035;-49
2022/03/13 04:01:26;;;;;;;13.55;6.45;;;;;;;13.82;44.25;98461.44;4917878;29;20028;-49
2022/03/13 04:03:51;;;;;;;9.02;5.80;;;;;;;13.76;44.02;98461.34;4917894;29;20079;-49
2022/03/13 04:06:19;;;;;;;11.43;6.22;;;;;;;13.73;44.42;98460.97;4916520;29;20111;-47
2022/03/13 04:08:46;;;;;;;8.10;4.85;;;;;;;13.74;44.26;98460.75;4917765;29;20027;-50
2022/03/13 04:11:12;;;;;;;16.05;6.80;;;;;;;13.69;44.93;98465.91;4917730;29;20144;-49
2022/03/13 04:13:38;;;;;;;9.65;6.57;;;;;;;13.76;45.04;98458.69;4917666;29;20028;-49
2022/03/13 04:16:07;;;;;;;7.70;4.82;;;;;;;13.76;44.30;98456.06;4917361;29;20068;-48
2022/03/13 04:18:34;;;;;;;11.43;5.13;;;;;;;13.87;44.03;98456.31;4917520;29;20035;-49
2022/03/13 04:21:00;;;;;;;8.40;5.32;;;;;;;13.83;43.84;98444.59;4917544;29;20103;-49
2022/03/13 04:23:26;;;;;;;9.48;5.28;;;;;;;13.78;44.12;98435.53;4916201;29;20180;-49
2022/03/13 04:25:53;;;;;;;14.15;6.43;;;;;;;13.95;43.66;98440.94;4916210;29;20101;-50
2022/03/13 04:28:18;;;;;;;12.98;4.72;;;;;;;14.02;43.64;98443.47;4916130;29;20589;-50
2022/03/13 04:30:47;;;;;;;11.73;6.82;;;;;;;14.22;43.57;98439.69;4917346;29;20024;-49
2022/03/13 04:33:16;;;;;;;13.82;5.82;;;;;;;14.31;43.08;98436.47;4916359;29;20036;-50
2022/03/13 04:35:42;;;;;;;10.07;5.57;;;;;;;14.26;42.80;98431.06;4916028;29;20501;-48
2022/03/13 04:38:08;;;;;;;8.93;6.93;;;;;;;14.21;42.85;98430.97;4917198;29;20028;-50
2022/03/13 04:40:34;;;;;;;8.32;4.53;;;;;;;14.13;42.84;98440.03;4915918;29;20176;-49
2022/03/13 04:43:01;;;;;;;18.55;8.65;;;;;;;14.03;43.23;98444.28;4917172;29;20566;-49
2022/03/13 04:45:27;;;;;;;9.80;4.80;;;;;;;14.03;43.31;98437.16;4915845;29;20072;-50
2022/03/13 04:47:53;;;;;;;12.20;5.15;;;;;;;14.08;42.96;98442.53;4917082;29;20079;-49
2022/03/13 04:50:19;;;;;;;10.02;4.45;;;;;;;14.04;43.09;98433.47;4915790;29;20031;-49
2022/03/13 04:52:45;;;;;;;9.68;4.43;;;;;;;14.03;43.20;98444.28;4917025;29;20083;-49
2022/03/13 04:55:10;;;;;;;5.88;4.00;;;;;;;13.95;42.99;98442.78;4915664;29;20511;-49
2022/03/13 04:57:36;;;;;;;7.93;4.25;;;;;;;13.70;43.03;98450.88;4915541;29;20498;-49
2022/03/13 05:00:03;;;;;;;9.40;4.45;;;;;;;13.48;43.84;98442.66;4915532;29;20069;-50
2022/03/13 05:02:29;;;;;;;9.70;5.25;;;;;;;13.36;44.22;98440.81;4916822;29;20403;-50
2022/03/13 05:04:55;;;;;;;8.90;4.45;;;;;;;13.41;43.78;98432.22;4916766;29;20068;-50
2022/03/13 05:07:21;;;;;;;9.63;5.40;;;;;;;13.34;44.42;98428.88;4915408;29;20445;-49
2022/03/13 05:09:47;;;;;;;7.07;4.35;;;;;;;13.42;43.59;98433.03;4916677;29;20036;-49
2022/03/13 05:12:14;;;;;;;5.38;4.38;;;;;;;13.29;43.87;98434.81;4915322;29;20035;-50
2022/03/13 05:14:40;;;;;;;8.63;5.32;;;;;;;13.16;44.82;98441.06;4916612;29;20036;-49
2022/03/13 05:17:05;;;;;;;12.10;5.50;;;;;;;13.22;44.47;98443.81;4914991;29;20103;-49
2022/03/13 05:19:31;;;;;;;8.35;4.82;;;;;;;13.23;44.08;98451.50;4915206;29;20024;-49
2022/03/13 05:21:57;;;;;;;5.75;4.03;;;;;;;13.04;43.96;98456.00;4916460;29;20028;-49
2022/03/13 05:24:23;;;;;;;6.95;4.03;;;;;;;12.83;44.66;98452.00;4915124;29;20554;-49
2022/03/13 05:26:48;;;;;;;6.07;4.80;;;;;;;12.69;44.69;98453.16;4915107;29;20025;-49
2022/03/13 05:29:14;;;;;;;6.38;4.60;;;;;;;12.62;45.29;98457.72;4915071;29;20068;-49
2022/03/13 05:31:40;;;;;;;9.15;5.30;;;;;;;12.52;45.07;98455.59;4914996;29;20055;-49
2022/03/13 05:34:07;;;;;;;7.97;5.50;;;;;;;12.45;45.71;98465.38;4916296;29;20032;-50
2022/03/13 05:36:33;;;;;;;11.18;4.80;;;;;;;12.45;45.41;98460.91;4914836;29;20020;-49
2022/03/13 05:38:58;;;;;;;10.63;4.97;;;;;;;12.40;45.89;98463.38;4916190;29;20047;-49
2022/03/13 05:41:26;;;;;;;8.48;4.50;;;;;;;12.30;45.64;98452.56;4914841;29;20063;-50
2022/03/13 05:43:52;;;;;;;8.48;4.80;;;;;;;12.19;45.91;98457.53;4914466;29;20439;-49
2022/03/13 05:46:18;;;;;;;9.30;4.82;;;;;;;12.22;45.86;98461.53;4914707;29;20028;-50
2022/03/13 05:48:44;;;;;;;7.55;4.75;;;;;;;12.27;45.74;98458.25;4914758;29;20163;-49
2022/03/13 05:51:09;;;;;;;11.55;5.25;;;;;;;12.27;45.80;98460.88;4914704;29;20028;-49
2022/03/13 05:53:35;;;;;;;10.95;5.30;;;;;;;12.18;45.72;98458.53;4915983;29;20035;-48
2022/03/13 05:56:01;;;;;;;8.15;5.10;;;;;;;12.14;46.06;98459.19;4914623;29;20025;-48
2022/03/13 05:58:26;;;;;;;9.45;5.05;;;;;;;12.10;46.46;98456.16;4914543;29;20028;-49
2022/03/13 06:01:10;;;;;;;9.30;5.28;;;;;;;12.11;46.13;98457.78;4914540;29;20035;-49
2022/03/13 06:03:37;;;;;;;7.40;4.90;;;;;;;12.20;46.12;98453.06;4915945;29;20028;-48
2022/03/13 06:06:03;;;;;;;12.07;6.30;;;;;;;12.31;46.08;98460.22;4915831;29;20032;-50
2022/03/13 06:08:30;;;;;;;8.50;5.35;;;;;;;12.32;46.12;98456.56;4915777;29;20091;-49
2022/03/13 06:10:57;;;;;;;6.70;4.85;;;;;;;12.37;45.61;98455.91;4914418;29;20562;-49
2022/03/13 06:13:24;;;;;;;9.20;5.28;;;;;;;12.39;45.78;98456.50;4915756;29;20112;-49
2022/03/13 06:15:50;;;;;;;8.82;6.53;;;;;;;12.39;45.69;98459.97;4914164;29;20055;-49
2022/03/13 06:18:16;;;;;;;11.43;4.82;;;;;;;12.51;45.82;98465.28;4915593;29;20020;-50
2022/03/13 06:20:43;;;;;;;6.00;4.25;;;;;;;12.53;45.28;98465.88;4914607;29;20087;-49
2022/03/13 06:23:12;;;;;;;28.58;25.58;;;;;;;12.57;45.55;98469.69;4914341;29;20174;-49
2022/03/13 06:25:38;;;;;;;9.73;7.68;;;;;;;12.55;45.91;98466.47;4915643;29;20024;-48
2022/03/13 06:28:04;;;;;;;11.90;5.63;;;;;;;12.62;45.21;98466.41;4914312;29;20466;-49
2022/03/13 06:30:30;;;;;;;11.00;5.95;;;;;;;12.68;45.58;98470.81;4914251;29;20066;-49
2022/03/13 06:32:56;;;;;;;7.75;4.82;;;;;;;12.98;44.88;98462.97;4914343;29;20024;-48
2022/03/13 06:35:23;;;;;;;25.77;23.17;;;;;;;13.28;44.71;98458.72;4914282;29;20115;-49
2022/03/13 06:37:52;;;;;;;11.52;7.30;;;;;;;13.52;43.67;98455.19;4915521;29;20550;-49
2022/03/13 06:40:19;;;;;;;13.63;7.72;;;;;;;13.67;43.43;98462.69;4915521;29;20038;-49
2022/03/13 06:42:47;;;;;;;9.63;5.15;;;;;;;13.55;43.24;98464.47;4915534;29;20068;-49
2022/03/13 06:45:13;;;;;;;8.05;5.05;;;;;;;13.48;43.53;98466.41;4915437;29;20506;-49
2022/03/13 06:47:40;;;;;;;11.52;6.68;;;;;;;13.64;43.14;98470.22;4914160;29;20648;-49
2022/03/13 06:50:08;;;;;;;7.40;5.15;;;;;;;13.50;43.34;98473.06;4915391;29;20487;-49
2022/03/13 06:52:35;;;;;;;8.27;5.55;;;;;;;13.31;43.51;98468.88;4914108;29;20075;-49
2022/03/13 06:55:01;;;;;;;7.32;5.65;;;;;;;13.30;44.26;98472.50;4914696;29;20036;-49
2022/03/13 06:57:26;;;;;;;9.20;5.50;;;;;;;13.17;43.88;98466.38;4918953;29;20031;-50
2022/03/13 06:59:52;;;;;;;7.63;5.68;;;;;;;13.13;44.20;98467.03;4919054;29;20028;-50
2022/03/13 07:02:18;;;;;;;7.72;5.38;;;;;;;13.16;44.72;98470.03;4919229;29;20087;-50
2022/03/13 07:04:43;;;;;;;11.75;5.78;;;;;;;13.16;44.55;98477.94;4918972;29;20111;-49
2022/03/13 07:07:09;;;;;;;12.20;6.15;;;;;;;13.10;44.56;98475.38;4918868;29;20032;-49
2022/03/13 07:09:35;;;;;;;10.80;5.63;;;;;;;13.15;44.54;98484.22;4917562;29;20024;-48
2022/03/13 07:12:01;;;;;;;7.57;5.05;;;;;;;13.13;44.64;98474.94;4918812;29;20020;-50
2022/03/13 07:14:26;;;;;;;9.80;5.00;;;;;;;13.08;45.21;98488.78;4918739;29;20032;-50
2022/03/13 07:16:53;;;;;;;11.00;6.15;;;;;;;13.15;45.06;98486.88;4917130;29;20044;-50
2022/03/13 07:19:19;;;;;;;8.05;5.45;;;;;;;13.22;44.37;98481.53;4918653;29;20024;-49
2022/03/13 07:21:44;;;;;;;7.35;4.85;;;;;;;13.10;45.05;98481.47;4917335;29;20190;-49
2022/03/13 07:24:10;;;;;;;7.15;5.07;;;;;;;12.92;45.28;98484.91;4918613;29;20051;-49
2022/03/13 07:26:36;;;;;;;7.38;4.85;;;;;;;12.87;45.45;98489.22;4918529;29;20028;-49
2022/03/13 07:29:02;;;;;;;6.93;4.60;;;;;;;12.89;45.74;98493.25;4918506;29;20039;-50
2022/03/13 07:31:31;;;;;;;7.75;4.95;;;;;;;12.84;45.62;98489.66;4917186;29;20036;-49
2022/03/13 07:33:58;;;;;;;8.43;5.30;;;;;;;12.76;45.62;98483.69;4918459;29;20020;-50
2022/03/13 07:36:24;;;;;;;8.57;5.32;;;;;;;12.73;46.40;98493.84;4918282;29;20024;-49
2022/03/13 07:38:50;;;;;;;8.68;5.60;;;;;;;12.68;45.87;98491.88;4917240;29;20095;-50
2022/03/13 07:41:16;;;;;;;7.05;5.65;;;;;;;12.61;46.52;98488.47;4918299;29;20032;-48
2022/03/13 07:43:42;;;;;;;12.85;6.68;;;;;;;12.80;46.08;98499.84;4916950;29;20032;-50
2022/03/13 07:46:08;;;;;;;23.10;13.20;;;;;;;12.98;45.82;98489.31;4918135;29;20032;-49
2022/03/13 07:48:34;;;;;;;8.80;5.38;;;;;;;13.02;46.19;98491.47;4918210;29;20407;-50
2022/03/13 07:51:01;;;;;;;7.93;5.20;;;;;;;13.11;46.29;98487.53;4918098;29;20036;-50
2022/03/13 07:53:28;;;;;;;6.57;4.90;;;;;;;13.22;45.73;98486.81;4918068;29;20026;-49
2022/03/13 07:55:56;;;;;;;6.78;5.57;;;;;;;13.24;45.28;98494.47;4917998;29;20415;-50
2022/03/13 07:58:22;;;;;;;9.68;5.03;;;;;;;13.21;45.23;98490.44;4917930;29;20020;-50
2022/03/13 08:00:49;;;;;;;6.60;4.88;;;;;;;13.22;45.26;98491.25;4916724;29;20039;-49
2022/03/13 08:03:17;;;;;;;8.52;5.05;;;;;;;13.36;45.91;98493.53;4917898;29;20108;-49
2022/03/13 08:05:43;;;;;;;5.93;5.07;;;;;;;13.56;45.20;98500.34;4916262;29;20087;-50
2022/03/13 08:08:09;;;;;;;6.65;4.50;;;;;;;13.72;45.17;98494.47;4916521;29;20533;-49
2022/03/13 08:10:35;;;;;;;6.28;4.63;;;;;;;13.91;44.46;98503.09;4916499;29;20032;-49
2022/03/13 08:13:01;;;;;;;7.20;4.88;;;;;;;13.98;45.05;98498.53;4917732;29;20490;-49
2022/03/13 08:15:27;;;;;;;9.65;4.57;;;;;;;14.14;44.38;98493.63;4917465;29;20131;-49
2022/03/13 08:17:53;;;;;;;9.60;4.88;;;;;;;14.37;43.78;98492.84;4917608;29;20032;-49
2022/03/13 08:20:18;;;;;;;10.38;5.07;;;;;;;14.33;44.19;98502.25;4917575;29;20028;-49
2022/03/13 08:22:44;;;;;;;9.90;4.82;;;;;;;14.27;43.92;98503.16;4917597;29;20039;-49
2022/03/13 08:25:18;;;;;;;8.32;4.70;;;;;;;14.17;44.46;98504.53;4917553;29;20024;-49
2022/03/13 08:27:43;;;;;;;7.70;4.53;;;;;;;14.00;44.59;98503.56;4917567;29;20034;-49
2022/03/13 08:30:11;;;;;;;6.60;4.35;;;;;;;13.92;44.42;98495.97;4916123;29;20545;-49
2022/03/13 08:32:39;;;;;;;6.25;4.60;;;;;;;13.94;44.56;98500.03;4917441;29;20371;-49
2022/03/13 08:35:07;;;;;;;6.90;5.10;;;;;;;13.98;44.41;98495.91;4916032;29;20119;-49
2022/03/13 08:37:33;;;;;;;6.25;3.72;;;;;;;13.96;44.30;98505.06;4915960;29;20047;-50
2022/03/13 08:39:59;;;;;;;9.85;5.22;;;;;;;13.83;44.58;98492.09;4915992;29;20507;-49
2022/03/13 08:42:24;;;;;;;7.35;4.68;;;;;;;13.87;45.29;98495.88;4917243;29;20091;-49
2022/03/13 08:44:50;;;;;;;9.68;4.95;;;;;;;14.05;44.72;98498.44;4917183;29;20516;-50
2022/03/13 08:47:16;;;;;;;9.50;7.90;;;;;;;13.99;45.75;98502.78;4917138;29;20110;-50
2022/03/13 08:49:42;;;;;;;9.20;5.60;;;;;;;14.10;44.70;98495.91;4915861;29;20458;-49
2022/03/13 08:52:07;;;;;;;10.23;5.55;;;;;;;14.17;45.88;98498.44;4915701;29;20024;-49
2022/03/13 08:54:34;;;;;;;6.10;4.80;;;;;;;14.29;44.49;98496.63;4916991;29;20028;-49
2022/03/13 08:57:01;;;;;;;6.25;5.20;;;;;;;14.23;44.49;98496.75;4915523;29;20095;-50
2022/03/13 08:59:28;;;;;;;7.70;4.72;;;;;;;14.18;44.53;98506.16;4915625;29;20035;-50
2022/03/13 09:01:54;;;;;;;6.85;4.93;;;;;;;14.21;44.56;98501.44;4916815;29;20048;-50
2022/03/13 09:04:20;;;;;;;5.60;4.63;;;;;;;14.30;44.35;98502.69;4916857;29;20533;-48
2022/03/13 09:06:46;;;;;;;7.90;5.15;;;;;;;14.32;44.29;98495.34;4916772;29;20062;-49
2022/03/13 09:09:12;;;;;;;10.30;5.70;;;;;;;14.42;44.33;98495.56;4916748;29;20024;-49
2022/03/13 09:11:38;;;;;;;9.18;5.35;;;;;;;14.80;43.89;98496.16;4915362;29;20029;-50
2022/03/13 09:14:05;;;;;;;7.88;5.05;;;;;;;15.26;42.90;98497.88;4916641;29;20028;-49
2022/03/13 09:16:33;;;;;;;9.73;6.45;;;;;;;15.56;42.13;98495.00;4914975;29;20080;-50
2022/03/13 09:18:59;;;;;;;9.40;5.13;;;;;;;15.77;41.76;98492.75;4914657;29;20036;-49
2022/03/13 09:21:25;;;;;;;10.75;4.88;;;;;;;15.84;41.20;98488.09;4916490;29;20517;-49
2022/03/13 09:23:51;;;;;;;8.70;4.90;;;;;;;15.72;41.25;98496.09;4915130;29;20024;-50
2022/03/13 09:26:16;;;;;;;11.35;4.93;;;;;;;15.65;41.63;98497.25;4915136;29;20034;-49
2022/03/13 09:28:42;;;;;;;6.68;4.57;;;;;;;15.63;41.84;98497.50;4915097;29;20127;-49
2022/03/13 09:31:10;;;;;;;8.60;5.40;;;;;;;15.75;41.76;98490.34;4915015;29;20031;-50
2022/03/13 09:33:36;;;;;;;7.53;5.72;;;;;;;15.75;42.39;98481.59;4916301;29;20578;-49
2022/03/13 09:36:01;;;;;;;7.32;5.20;;;;;;;15.70;41.38;98479.63;4916205;29;20111;-49
2022/03/13 09:38:27;;;;;;;14.88;13.27;;;;;;;15.60;41.31;98486.59;4914851;29;20028;-49
2022/03/13 09:40:54;;;;;;;12.95;8.02;;;;;;;15.58;41.33;98476.25;4916143;29;20032;-49
2022/03/13 09:43:21;;;;;;;15.50;13.75;;;;;;;15.58;41.37;98470.97;4916459;29;20491;-50
2022/03/13 09:45:48;;;;;;;10.20;8.02;;;;;;;15.45;41.41;98471.25;4916098;29;20024;-49
2022/03/13 09:48:16;;;;;;;8.07;6.90;;;;;;;15.44;41.77;98480.25;4916058;29;20020;-49
2022/03/13 09:50:43;;;;;;;9.73;6.47;;;;;;;15.57;41.91;98466.69;4915980;29;20066;-49
2022/03/13 09:53:08;;;;;;;7.68;4.95;;;;;;;15.93;40.92;98468.13;4916010;29;20025;-50
2022/03/13 09:55:34;;;;;;;14.45;5.75;;;;;;;16.02;40.38;98465.91;4914654;29;20115;-49
2022/03/13 09:58:00;;;;;;;8.35;5.00;;;;;;;16.21;39.75;98452.41;4915828;29;20043;-49
2022/03/13 10:00:26;;;;;;;6.38;4.65;;;;;;;16.27;39.52;98449.59;4915933;29;20103;-50
2022/03/13 10:02:53;;;;;;;8.23;5.72;;;;;;;16.42;39.10;98454.31;4914576;29;20067;-50
2022/03/13 10:05:20;;;;;;;6.97;4.97;;;;;;;16.71;39.00;98456.81;4915811;29;20075;-50
2022/03/13 10:07:49;;;;;;;7.35;3.92;;;;;;;17.14;38.03;98444.59;4915808;29;20032;-50
2022/03/13 10:10:15;;;;;;;7.63;5.50;;;;;;;17.28;37.98;98445.00;4915729;29;20032;-50
2022/03/13 10:12:41;;;;;;;6.85;4.63;;;;;;;17.37;37.61;98430.25;4915736;29;20024;-50
2022/03/13 10:15:08;;;;;;;7.78;5.40;;;;;;;17.21;37.63;98436.47;4914128;29;20083;-50
2022/03/13 10:17:37;;;;;;;5.97;4.90;;;;;;;16.97;38.18;98434.88;4915692;29;20550;-50
2022/03/13 10:20:14;;;;;;;17.67;12.52;;;;;;;17.54;37.44;98427.50;4915643;29;20024;-50
2022/03/13 10:22:42;;;;;;;5.88;5.32;;;;;;;17.86;36.50;98413.44;4914347;29;20063;-50
2022/03/13 10:25:08;;;;;;;9.80;7.18;;;;;;;17.98;36.27;98427.34;4914279;29;20118;-50
2022/03/13 10:27:34;;;;;;;5.47;4.93;;;;;;;18.52;35.96;98421.81;4915648;29;20578;-50
2022/03/13 10:30:08;;;;;;;7.95;5.70;;;;;;;18.98;35.06;98412.47;4917811;29;20111;-50
2022/03/13 10:32:34;;;;;;;7.93;5.10;;;;;;;19.67;34.82;98405.91;4919639;29;20051;-50
2022/03/13 10:35:01;;;;;;;6.95;4.63;;;;;;;20.52;33.08;98414.06;4919493;29;20107;-50
2022/03/13 10:37:43;;;;;;;6.80;5.10;;;;;;;19.99;32.62;98399.53;4919350;29;20103;-50
2022/03/13 10:40:33;;;;;;;8.25;4.75;;;;;;;19.39;33.01;98408.00;4919400;29;20036;-50
2022/03/13 10:43:06;;;;;;;11.52;7.65;;;;;;;19.74;32.97;98401.16;4914995;29;20532;-50
2022/03/13 10:45:47;;;;;;;7.25;4.35;;;;;;;20.65;31.72;98387.91;4919321;29;20067;-49
2022/03/13 10:48:28;;;;;;;6.00;4.13;;;;;;;21.56;30.21;98396.44;4919291;29;20110;-50
2022/03/13 10:50:57;;;;;;;5.38;4.38;;;;;;;21.47;29.71;98377.56;4919219;29;20032;-50
2022/03/13 10:53:22;;;;;;;6.25;4.57;;;;;;;20.87;29.99;98384.88;4919188;29;20024;-49
2022/03/13 10:56:12;;;;;;;7.70;4.63;;;;;;;20.46;30.96;98385.78;4917828;29;20047;-50
2022/03/13 10:58:40;;;;;;;5.38;3.92;;;;;;;20.40;30.60;98383.44;4919066;29;20119;-51
2022/03/13 11:01:31;;;;;;;8.80;6.97;;;;;;;20.15;31.11;98374.44;4918999;29;20043;-50
2022/03/13 11:04:02;;;;;;;12.10;8.43;;;;;;;19.89;31.39;98387.00;4919042;29;20024;-50
2022/03/13 11:06:28;;;;;;;6.82;4.47;;;;;;;19.77;31.99;98386.50;4917702;29;20438;-50
2022/03/13 11:08:55;;;;;;;7.47;5.15;;;;;;;19.93;31.48;98374.75;4917654;29;20024;-50
2022/03/13 11:11:23;;;;;;;9.85;5.43;;;;;;;19.72;31.84;98374.78;4918876;29;20051;-50
2022/03/13 11:13:54;;;;;;;12.80;8.95;;;;;;;19.61;32.30;98383.81;4918821;29;20028;-50
2022/03/13 11:16:25;;;;;;;6.53;5.70;;;;;;;19.29;32.44;98376.06;4917273;29;20156;-50
2022/03/13 11:18:53;;;;;;;7.97;4.75;;;;;;;19.02;32.90;98371.78;4918638;29;20024;-50
2022/03/13 11:21:25;;;;;;;10.38;4.57;;;;;;;18.84;33.65;98366.97;4918725;29;20025;-50
2022/03/13 11:23:51;;;;;;;6.55;5.05;;;;;;;19.02;33.06;98365.69;4917318;29;20046;-50
2022/03/13 11:26:19;;;;;;;8.27;4.25;;;;;;;18.98;33.38;98369.91;4918689;29;20032;-49
2022/03/13 11:28:47;;;;;;;12.27;7.78;;;;;;;19.20;33.35;98367.03;4917339;29;20063;-50